Latest Weather Observations for Mortlake

IDV60801

Issued at 9:35 pm EST Saturday 19 April 2014 (issued every 30 minutes, with the page automatically refreshed every 10 minutes)

About weather observations | Map of weather stations | Latest weather observations for VIC | Other Formats
Station Details ID: 090176 Name: MORTLAKE RACECOURSE Lat: -38.07 Lon: 142.77 Height: 130.0 m
Data from the previous 72 hours. | See also: Recent months at Mortlake
Date/Time
EST
Temp
°C
App
Temp
°C
Dew
Point
Rel
Hum
%
Delta-T
°C
Wind Press
QNH
hPa
Press
MSL
hPa
Rain
since 9 am
mm
Dir
 
Spd
km/h
Gust
km/h
Spd
kts
Gust
kts
19/09:30pm 10.5 10.3 8.9 90 0.8 WSW 0 0 0 0 1018.8 - 0.2
19/09:00pm 10.7 9.7 9.0 89 0.8 WSW 4 7 2 4 1019.0 1019.0 0.2
19/08:30pm 10.8 9.5 9.1 89 0.9 WSW 6 11 3 6 1019.1 - 0.2
19/08:00pm 11.0 9.4 8.8 86 1.1 WSW 7 13 4 7 1019.1 1019.1 0.2
19/07:30pm 11.6 10.0 8.8 83 1.4 SW 7 11 4 6 1019.1 - 0.2
19/07:00pm 12.3 10.7 8.0 75 2.1 SW 6 11 3 6 1019.0 1019.0 0.2
19/06:30pm 12.3 10.6 7.6 73 2.3 SW 6 7 3 4 1019.0 - 0.2
19/06:00pm 12.7 10.8 7.4 70 2.6 SW 7 9 4 5 1018.9 1018.9 0.2
19/05:30pm 13.1 10.3 6.9 66 3.0 SSW 11 15 6 8 1018.8 - 0.2
19/05:00pm 13.6 11.6 6.9 64 3.3 SW 7 11 4 6 1018.8 1018.8 0.2
19/04:30pm 14.0 11.6 6.8 62 3.5 SSW 9 13 5 7 1018.8 - 0.2
19/04:00pm 14.3 11.9 6.9 61 3.6 SSW 9 15 5 8 1019.0 1019.0 0.0
19/03:30pm 14.4 11.7 7.2 62 3.6 SSW 11 17 6 9 1019.0 - 0.0
19/03:00pm 14.9 11.9 7.5 61 3.7 SW 13 20 7 11 1019.1 1019.1 0.0
19/02:30pm 14.6 10.9 6.2 57 4.1 SW 15 20 8 11 1019.3 - 0.0
19/02:00pm 14.3 10.6 7.8 65 3.2 SW 17 24 9 13 1019.6 1019.6 0.0
19/01:30pm 14.1 10.2 6.9 62 3.5 SW 17 24 9 13 1019.7 - 0.0
19/01:00pm 14.1 10.3 7.4 64 3.3 SW 17 26 9 14 1020.1 1020.1 0.0
19/12:30pm 14.4 11.0 6.0 57 4.0 SW 13 22 7 12 1020.7 - 0.0
19/12:00pm 14.5 11.2 8.0 65 3.2 WNW 15 19 8 10 1021.1 1021.1 0.0
19/11:30am 13.4 10.7 8.9 74 2.3 WNW 13 17 7 9 1021.4 - 0.0
19/11:00am 12.8 9.9 8.3 74 2.2 W 13 17 7 9 1021.5 1021.5 0.0
19/10:30am 13.1 11.1 10.3 83 1.5 W 11 17 6 9 1021.7 - 0.0
19/10:00am 10.8 9.2 10.2 96 0.3 WNW 9 13 5 7 1022.0 1021.9 0.0
19/09:30am 11.6 10.0 10.3 92 0.7 W 9 13 5 7 1022.2 - 0.0
19/09:00am 10.3 8.3 10.1 99 0.1 WNW 11 17 6 9 1022.1 1022.0 0.0
19/08:30am 9.9 8.6 9.8 99 0.1 W 7 15 4 8 1021.7 - 0.0
19/08:00am 9.1 7.2 9.0 99 0.0 W 9 13 5 7 1021.6 1021.6 0.0
19/07:30am 7.1 5.3 7.0 99 0.0 W 6 6 3 3 1021.2 - 0.0
19/07:00am 6.0 4.2 5.4 96 0.3 W 4 6 2 3 1020.9 1020.9 0.0
19/06:30am 8.8 7.2 7.9 94 0.4 W 6 7 3 4 1020.7 - 0.0
19/06:00am 9.6 8.1 8.4 92 0.6 WSW 6 7 3 4 1020.5 1020.5 0.0
19/05:30am 9.5 8.0 8.3 92 0.6 WSW 6 7 3 4 1020.4 - 0.0
19/05:00am 9.7 8.3 8.8 94 0.4 W 6 9 3 5 1020.3 1020.3 0.0
19/04:30am 8.9 7.9 8.8 99 0.0 W 4 6 2 3 1020.1 - 0.0
19/04:00am 9.3 9.0 8.8 97 0.2 CALM 0 2 0 1 1020.1 1020.1 0.0
19/03:30am 9.6 8.6 9.0 96 0.3 W 4 6 2 3 1020.3 - 0.0
19/03:00am 9.5 8.1 8.9 96 0.3 W 6 7 3 4 1020.5 1020.5 0.0
19/02:30am 9.4 8.4 8.9 97 0.2 W 4 4 2 2 1020.7 - 0.0
19/02:00am 9.0 8.4 8.9 99 0.0 W 2 4 1 2 1020.8 1020.8 0.0
19/01:30am 8.8 7.4 8.7 99 0.0 W 6 7 3 4 1021.0 - 0.0
19/01:00am 8.4 7.2 8.0 97 0.2 W 4 7 2 4 1021.0 1021.0 0.0
19/12:30am 9.3 8.5 8.2 93 0.5 W 2 4 1 2 1021.0 - 0.0
19/12:00am 9.5 8.4 8.4 93 0.5 W 4 6 2 3 1021.1 1021.1 0.0
 
Date/Time
EST
Temp
°C
App
Temp
°C
Dew
Point
Rel
Hum
%
Delta-T
°C
Wind Press
QNH
hPa
Press
MSL
hPa
Rain
since 9 am
mm
Dir
 
Spd
km/h
Gust
km/h
Spd
kts
Gust
kts
18/11:30pm 9.6 8.1 8.4 92 0.6 W 6 7 3 4 1021.2 - 0.0
18/11:00pm 9.1 7.6 6.9 86 1.0 W 4 7 2 4 1021.2 1021.2 0.0
18/10:30pm 10.0 8.1 7.6 85 1.2 W 7 9 4 5 1021.4 - 0.0
18/10:00pm 11.2 9.7 8.4 83 1.4 WSW 6 9 3 5 1021.4 1021.4 0.0
18/09:30pm 11.4 9.8 8.6 83 1.4 WSW 7 11 4 6 1021.2 - 0.0
18/09:00pm 11.2 9.6 8.2 82 1.5 WSW 6 9 3 5 1021.2 1021.2 0.0
18/08:30pm 11.5 9.4 8.4 81 1.5 W 9 13 5 7 1021.0 - 0.0
18/08:00pm 11.3 9.7 8.7 84 1.3 W 7 11 4 6 1021.0 1021.0 0.0
18/07:30pm 11.6 9.7 9.0 84 1.3 W 9 15 5 8 1020.8 - 0.0
18/07:00pm 10.9 9.1 7.8 81 1.5 SW 7 13 4 7 1020.6 1020.6 0.0
18/06:30pm 11.4 9.4 7.3 76 2.0 WSW 7 11 4 6 1020.5 - 0.0
18/06:00pm 12.3 9.1 6.8 69 2.6 WSW 13 22 7 12 1020.3 1020.3 0.0
18/05:30pm 13.1 7.7 6.5 64 3.2 SW 24 35 13 19 1020.1 - 0.0
18/05:00pm 14.6 9.2 4.6 51 4.7 SW 22 33 12 18 1019.8 1019.8 0.0
18/04:30pm 15.3 10.0 6.6 56 4.3 WSW 24 39 13 21 1019.6 - 0.0
18/04:00pm 14.7 8.9 6.3 57 4.1 SW 26 39 14 21 1019.4 1019.4 0.0
18/03:30pm 14.9 8.9 5.4 53 4.5 SW 26 37 14 20 1019.1 - 0.0
18/03:00pm 15.1 9.4 6.7 57 4.1 SW 26 37 14 20 1018.9 1018.9 0.0
18/02:36pm 16.0 9.6 7.0 55 4.5 SW 30 48 16 26 1018.8 - 0.0
18/02:30pm 17.5 11.1 5.1 44 6.0 SW 28 39 15 21 1018.7 - 0.0
18/02:00pm 16.8 9.6 4.8 45 5.7 SW 32 43 17 23 1018.5 1018.5 0.0
18/01:30pm 15.8 8.4 4.2 46 5.4 SW 32 46 17 25 1018.4 - 0.0
18/01:00pm 15.7 9.4 5.9 52 4.7 SW 28 41 15 22 1018.4 1018.3 0.0
18/12:30pm 14.9 8.2 7.2 60 3.8 SW 32 43 17 23 1018.5 - 0.0
18/12:00pm 16.5 9.1 4.9 46 5.5 SW 33 44 18 24 1018.2 1018.1 0.0
18/11:30am 16.0 8.8 5.9 51 4.9 SW 33 43 18 23 1018.2 - 0.0
18/11:00am 16.4 10.2 7.9 57 4.3 SW 30 44 16 24 1018.2 1018.1 0.0
18/10:30am 14.9 7.8 8.2 64 3.4 SSW 35 48 19 26 1017.8 - 0.0
18/10:09am 14.4 9.4 11.0 80 1.8 SW 28 46 15 25 1017.6 - 0.0
18/10:00am 13.7 7.4 11.0 84 1.4 SW 35 46 19 25 1017.6 1017.5 0.0
18/09:30am 12.9 11.3 12.7 99 0.1 WSW 13 24 7 13 1017.6 - 0.0
18/09:00am 12.5 9.6 12.3 99 0.1 SW 19 32 10 17 1017.3 1017.2 2.0
18/08:30am 12.4 9.9 12.2 99 0.1 SW 17 28 9 15 1016.9 - 1.6
18/08:00am 12.4 7.4 12.2 99 0.1 SW 30 46 16 25 1016.4 1016.3 0.8
18/07:51am 13.2 8.7 12.6 96 0.3 WSW 28 48 15 26 1016.1 - 0.6
18/07:30am 14.4 12.9 13.0 91 0.8 WNW 13 20 7 11 1015.1 - 0.2
18/07:00am 14.2 11.8 12.8 91 0.8 WNW 17 22 9 12 1015.0 1014.9 0.2
18/06:30am 14.3 11.5 12.5 89 1.0 WNW 19 28 10 15 1014.8 - 0.2
18/06:00am 14.6 12.2 12.6 88 1.1 WNW 17 24 9 13 1014.9 1014.8 0.2
18/05:30am 14.0 12.0 12.7 92 0.7 NW 15 20 8 11 1014.7 - 0.2
18/05:00am 12.6 11.5 11.8 95 0.4 NW 9 11 5 6 1014.9 1014.8 0.2
18/04:30am 12.7 10.8 11.8 94 0.5 NNW 13 17 7 9 1014.9 - 0.2
18/04:00am 11.7 10.1 11.4 98 0.2 NNW 11 15 6 8 1015.0 1014.9 0.2
18/03:30am 11.5 9.8 11.3 99 0.1 N 11 15 6 8 1015.1 - 0.2
18/03:00am 10.6 9.1 10.4 99 0.1 N 9 11 5 6 1015.5 1015.4 0.2
18/02:30am 10.1 8.4 10.0 99 0.1 N 9 11 5 6 1015.8 - 0.2
18/02:00am 9.1 7.6 9.0 99 0.0 N 7 11 4 6 1016.1 1016.0 0.2
18/01:30am 9.6 7.8 9.5 99 0.1 N 9 11 5 6 1016.2 - 0.2
18/01:00am 9.3 7.8 9.2 99 0.0 N 7 9 4 5 1016.7 1016.6 0.2
18/12:30am 9.2 7.3 9.1 99 0.0 WSW 9 17 5 9 1016.9 - 0.2
18/12:00am 8.3 6.6 8.2 99 0.0 SW 7 9 4 5 1017.5 1017.4 0.2
 
Date/Time
EST
Temp
°C
App
Temp
°C
Dew
Point
Rel
Hum
%
Delta-T
°C
Wind Press
QNH
hPa
Press
MSL
hPa
Rain
since 9 am
mm
Dir
 
Spd
km/h
Gust
km/h
Spd
kts
Gust
kts
17/11:30pm 8.1 6.5 8.0 99 0.0 SW 6 7 3 4 1018.0 - 0.2
17/11:00pm 8.8 7.4 8.7 99 0.0 SW 6 6 3 3 1018.5 1018.5 0.2
17/10:30pm 9.3 8.4 9.2 99 0.0 SW 4 6 2 3 1018.6 - 0.2
17/10:00pm 10.3 9.0 10.1 99 0.1 SW 7 9 4 5 1018.7 1018.7 0.2
17/09:30pm 9.6 8.2 9.5 99 0.1 SW 7 9 4 5 1018.8 - 0.2
17/09:00pm 10.2 9.5 10.1 99 0.1 SW 4 6 2 3 1018.8 1018.8 0.2
17/08:30pm 10.5 10.3 10.3 99 0.1 SW 2 4 1 2 1018.8 - 0.2
17/08:00pm 11.6 12.0 11.3 98 0.2 CALM 0 0 0 0 1018.8 1018.8 0.2
17/07:30pm 12.8 12.3 12.2 96 0.3 SSW 6 7 3 4 1018.8 - 0.2
17/07:00pm 13.6 12.3 12.5 93 0.6 SW 11 13 6 7 1018.6 1018.6 0.2
17/06:30pm 15.0 14.2 13.9 93 0.6 SSW 11 17 6 9 1018.6 - 0.2
17/06:00pm 15.3 13.8 14.2 93 0.6 SSW 15 20 8 11 1018.5 1018.5 0.2
17/05:30pm 16.6 14.1 14.2 86 1.4 SSW 20 30 11 16 1018.4 - 0.2
17/05:00pm 19.6 16.7 12.4 63 4.0 SSW 19 24 10 13 1018.2 1018.1 0.2
17/04:30pm 21.1 18.3 10.0 49 6.0 W 15 22 8 12 1017.9 - 0.2
17/04:00pm 22.1 19.0 8.9 43 7.1 WNW 15 24 8 13 1017.8 1017.7 0.2
17/03:30pm 22.3 19.3 9.1 43 7.1 WNW 15 24 8 13 1018.0 - 0.2
17/03:00pm 23.1 20.3 8.4 39 7.8 NW 13 26 7 14 1018.1 1018.0 0.2
17/02:30pm 23.4 20.2 8.3 38 8.1 NW 15 32 8 17 1018.2 - 0.2
17/02:00pm 22.4 19.6 8.5 41 7.4 NNW 13 22 7 12 1018.4 1018.3 0.2
17/01:30pm 23.4 20.4 9.4 41 7.6 NNW 15 22 8 12 1018.8 - 0.2
17/01:00pm 22.6 20.0 9.4 43 7.1 NW 13 20 7 11 1019.1 1019.1 0.2
17/12:30pm 22.3 19.6 9.1 43 7.1 NNW 13 22 7 12 1019.6 - 0.2
17/12:00pm 21.7 18.9 9.9 47 6.4 NNW 15 28 8 15 1020.0 1020.0 0.2
17/11:30am 21.0 18.6 10.2 50 5.9 N 13 20 7 11 1020.4 - 0.0
17/11:00am 20.6 18.8 9.5 49 5.9 NW 9 15 5 8 1020.6 1020.6 0.0
17/10:30am 19.3 17.1 9.2 52 5.3 SW 11 19 6 10 1020.7 - 0.0
17/10:00am 17.7 16.5 11.7 68 3.3 SW 9 13 5 7 1020.9 1020.9 0.0
17/09:30am 14.8 14.3 12.8 88 1.1 SW 7 13 4 7 1021.0 - 0.0
17/09:00am 12.8 12.5 12.6 99 0.1 SW 6 7 3 4 1021.0 1021.0 0.0
17/08:30am 11.0 10.1 10.8 99 0.1 SW 6 7 3 4 1020.8 - 0.0
17/08:00am 8.7 8.0 8.6 99 0.0 SW 2 4 1 2 1020.8 1020.8 0.0
17/07:30am 7.8 5.9 7.7 99 0.0 SW 7 7 4 4 1020.5 - 0.0
17/07:00am 7.5 5.6 7.4 99 0.0 SW 7 9 4 5 1020.1 1020.1 0.0
17/06:30am 6.3 4.3 6.2 99 0.0 SW 6 7 3 4 1019.9 - 0.0
17/06:00am 5.0 2.7 4.9 99 0.0 SW 6 7 3 4 1019.9 1019.9 0.0
17/05:30am 4.6 2.2 4.5 99 0.0 SW 6 7 3 4 1019.8 - 0.0
17/05:00am 5.0 3.1 4.9 99 0.0 SW 4 6 2 3 1019.9 1019.9 0.0
17/04:30am 5.0 3.1 4.9 99 0.0 SW 4 4 2 2 1019.8 - 0.0
17/04:00am 5.8 4.8 5.7 99 0.0 CALM 0 0 0 0 1019.6 1019.6 0.0
17/03:30am 5.8 4.4 5.7 99 0.0 SW 2 4 1 2 1019.5 - 0.0
17/03:00am 7.3 6.3 7.2 99 0.0 SW 2 6 1 3 1019.5 1019.5 0.0
17/02:30am 6.4 4.8 6.3 99 0.0 SW 4 6 2 3 1019.7 - 0.0
17/02:00am 7.5 6.9 7.4 99 0.0 CALM 0 0 0 0 1019.6 1019.6 0.0
17/01:30am 7.6 7.0 7.5 99 0.0 CALM 0 0 0 0 1019.8 - 0.0
17/01:00am 8.6 7.9 8.5 99 0.0 SW 2 4 1 2 1019.7 1019.7 0.0
17/12:30am 9.0 8.4 8.9 99 0.0 SW 2 4 1 2 1019.9 - 0.0
17/12:00am 10.2 9.9 10.1 99 0.1 SW 2 4 1 2 1019.9 1019.9 0.0
 
Date/Time
EST
Temp
°C
App
Temp
°C
Dew
Point
Rel
Hum
%
Delta-T
°C
Wind Press
QNH
hPa
Press
MSL
hPa
Rain
since 9 am
mm
Dir
 
Spd
km/h
Gust
km/h
Spd
kts
Gust
kts
16/11:30pm 10.8 10.6 10.6 99 0.1 SW 2 2 1 1 1020.0 - 0.0
16/11:00pm 11.0 10.5 10.8 99 0.1 SW 4 4 2 2 1020.1 1020.1 0.0
16/10:30pm 11.0 10.8 10.5 97 0.3 SW 2 4 1 2 1020.2 - 0.0
16/10:00pm 11.6 11.8 10.5 93 0.6 CALM 0 0 0 0 1020.1 1020.1 0.0

Other Formats:

Comma delimited format used in spreadsheet applications
http://www.bom.gov.au/fwo/IDV60801/IDV60801.94840.axf

JavaScript Object Notation format (JSON) in row-major order
http://www.bom.gov.au/fwo/IDV60801/IDV60801.94840.json